Time;durP1;ratioP1;P1;durP2;ratioP2;P2;SDS_P1;SDS_P2;PMS_P1;PMS_P2;Temp;Humidity;BMP_temperature;BMP_pressure;BME280_temperature;BME280_humidity;BME280_pressure;Samples;Min_cycle;Max_cycle;Signal;HPM_P1;HPM_P2
2022/06/22 00:00:35;;;;;;;12.20;5.30;;;;;;;17.05;75.25;97853.26;25043;1316;3048878;-65
2022/06/22 00:03:05;;;;;;;14.80;6.20;;;;;;;16.93;75.85;97844.63;24992;1319;3055557;-65
2022/06/22 00:05:49;;;;;;;30.80;13.40;;;;;;;17.33;74.24;97841.20;25159;1315;3027209;-61
2022/06/22 00:08:25;;;;;;;48.70;18.90;;;;;;;17.37;73.83;97830.14;24968;1317;3058858;-62
2022/06/22 00:11:07;;;;;;;52.20;18.70;;;;;;;17.12;74.79;97826.38;25015;1318;3050544;-59
2022/06/22 00:13:36;;;;;;;42.70;17.30;;;;;;;17.04;74.83;97829.31;25047;1316;3055380;-62
2022/06/22 00:16:14;;;;;;;29.30;11.80;;;;;;;16.94;75.09;97839.70;25028;1316;3026390;-63
2022/06/22 00:18:45;;;;;;;31.20;14.30;;;;;;;17.29;73.95;97833.21;25069;1316;3050392;-61
2022/06/22 00:21:31;;;;;;;30.40;14.00;;;;;;;17.43;73.28;97836.70;25046;1315;3028658;-62
2022/06/22 00:24:23;;;;;;;33.40;15.00;;;;;;;17.39;73.10;97842.86;25077;1315;3052566;-64
2022/06/22 00:26:54;;;;;;;28.30;14.60;;;;;;;17.08;74.32;97839.40;25039;1316;3071603;-60
2022/06/22 00:29:25;;;;;;;11.90;6.80;;;;;;;16.98;75.20;97843.54;25084;1316;3026683;-64
2022/06/22 00:31:55;;;;;;;10.70;5.30;;;;;;;17.24;74.32;97837.94;25111;1315;3026586;-61
2022/06/22 00:34:26;;;;;;;7.80;3.80;;;;;;;17.38;73.76;97843.83;25000;1319;3026640;-61
2022/06/22 00:36:55;;;;;;;5.30;2.10;;;;;;;17.30;73.36;97844.84;25083;1316;3048883;-61
2022/06/22 00:39:25;;;;;;;6.30;2.90;;;;;;;17.13;73.41;97833.90;25001;1317;3026158;-62
2022/06/22 00:42:24;;;;;;;5.30;2.90;;;;;;;16.92;74.59;97853.57;25048;1315;3070713;-63
2022/06/22 00:44:56;;;;;;;4.20;1.60;;;;;;;16.91;75.21;97859.91;25081;1315;3049926;-59
2022/06/22 00:47:26;;;;;;;6.80;1.50;;;;;;;17.60;73.03;97858.29;25099;1315;3029071;-62
2022/06/22 00:49:59;;;;;;;4.60;1.70;;;;;;;17.72;71.66;97862.37;25043;1315;3026570;-60
2022/06/22 00:53:05;;;;;;;4.90;1.80;;;;;;;17.66;71.94;97872.81;25048;1315;3027074;-63
2022/06/22 00:55:37;;;;;;;5.20;1.80;;;;;;;17.51;71.83;97886.59;25052;1315;3051897;-60
2022/06/22 00:58:07;;;;;;;3.70;1.90;;;;;;;17.42;72.67;97913.05;25075;1318;3027591;-60
2022/06/22 01:00:38;;;;;;;4.40;1.50;;;;;;;17.30;73.76;97927.02;24995;1319;3026847;-59
2022/06/22 01:03:20;;;;;;;4.00;1.40;;;;;;;17.91;72.07;97924.39;25023;1319;3026923;-58
2022/06/22 01:05:54;;;;;;;2.80;1.40;;;;;;;18.37;70.45;97913.20;25072;1315;3048901;-61
2022/06/22 01:08:35;;;;;;;2.50;1.30;;;;;;;18.12;71.29;97908.88;25090;1318;3026295;-63
2022/06/22 01:12:16;;;;;;;5.00;1.40;;;;;;;18.02;70.60;97913.65;25095;1315;3053688;-60
2022/06/22 01:14:06;;;;;;;2.80;1.80;;;;;;;17.76;71.73;97909.59;25035;1315;3059413;-64
2022/06/22 01:16:37;;;;;;;2.60;1.30;;;;;;;17.26;74.53;97893.42;25043;1318;3053846;-59
2022/06/22 01:19:23;;;;;;;4.80;1.30;;;;;;;17.56;73.38;97877.92;25054;1315;3026816;-58
2022/06/22 01:22:03;;;;;;;5.60;1.70;;;;;;;17.70;72.29;97857.34;25114;1315;3054820;-63
2022/06/22 01:24:38;;;;;;;2.30;1.80;;;;;;;17.62;72.19;97824.95;25017;1316;3071261;-64
2022/06/22 01:27:23;;;;;;;2.60;1.70;;;;;;;17.25;73.92;97786.59;25094;1316;3050998;-64
2022/06/22 01:29:54;;;;;;;2.50;1.80;;;;;;;16.90;75.34;97748.24;25090;1315;3052701;-65
2022/06/22 01:32:26;;;;;;;2.30;1.40;;;;;;;16.66;77.05;97723.86;25097;1315;3026879;-62
2022/06/22 01:34:59;;;;;;;5.20;1.50;;;;;;;17.27;75.35;97711.50;25042;1315;3026816;-64
2022/06/22 01:37:31;;;;;;;3.50;2.00;;;;;;;17.71;73.08;97735.53;25037;1315;3027197;-62
2022/06/22 01:40:10;;;;;;;4.40;2.90;;;;;;;17.59;73.27;97750.74;25032;1319;3026442;-60
2022/06/22 01:43:00;;;;;;;5.40;3.60;;;;;;;17.49;73.68;97769.30;25026;1319;3054146;-62
2022/06/22 01:45:41;;;;;;;4.80;3.40;;;;;;;17.28;75.26;97794.08;25061;1315;3071768;-65
2022/06/22 01:48:23;;;;;;;8.40;2.80;;;;;;;17.25;74.63;97797.54;25044;1316;3048962;-61
2022/06/22 01:50:58;;;;;;;4.60;2.40;;;;;;;17.96;73.23;97788.22;25053;1316;3054870;-60
2022/06/22 01:53:32;;;;;;;11.70;2.60;;;;;;;18.40;70.36;97798.84;25031;1315;3052422;-63
2022/06/22 01:56:08;;;;;;;4.30;2.80;;;;;;;18.37;70.53;97806.49;25059;1318;3059050;-62
2022/06/22 01:58:50;;;;;;;6.50;3.70;;;;;;;18.20;70.86;97810.63;25083;1315;3049834;-63
2022/06/22 02:01:37;;;;;;;6.60;4.20;;;;;;;18.13;70.50;97801.92;25095;1315;3052515;-63
2022/06/22 02:04:14;;;;;;;7.90;4.00;;;;;;;17.93;72.34;97804.23;25029;1318;3053952;-64
2022/06/22 02:09:53;;;;;;;12.40;2.00;;;;;;;18.45;70.96;97814.94;25073;1315;3052233;-63
2022/06/22 02:12:28;;;;;;;4.40;2.30;;;;;;;18.59;70.07;97833.70;25084;1316;3053088;-64
2022/06/22 02:15:03;;;;;;;8.00;3.80;;;;;;;18.44;70.81;97857.17;25086;1315;3052862;-63
2022/06/22 02:17:33;;;;;;;8.50;4.10;;;;;;;18.33;71.20;97853.38;25047;1315;3056274;-62
2022/06/22 02:20:18;;;;;;;11.80;5.30;;;;;;;17.97;72.95;97863.31;25001;1318;3026864;-64
2022/06/22 02:22:47;;;;;;;12.10;5.70;;;;;;;17.78;73.50;97866.23;25085;1315;3053194;-63
2022/06/22 02:25:17;;;;;;;11.10;5.80;;;;;;;17.62;74.87;97864.73;24985;1318;3026478;-64
2022/06/22 02:27:46;;;;;;;10.60;5.80;;;;;;;18.24;73.02;97853.40;24958;1319;3051687;-62
2022/06/22 02:30:15;;;;;;;14.40;7.60;;;;;;;18.78;70.67;97847.86;25121;1315;3026793;-60
2022/06/22 02:32:44;;;;;;;14.80;7.00;;;;;;;18.61;70.31;97850.61;24982;1319;3058822;-63
2022/06/22 02:35:13;;;;;;;16.20;6.50;;;;;;;18.42;70.71;97847.30;25043;1318;3026672;-64
2022/06/22 02:37:55;;;;;;;16.30;7.30;;;;;;;18.28;70.83;97840.63;24976;1318;3052279;-64
2022/06/22 02:40:26;;;;;;;16.30;7.20;;;;;;;18.10;71.09;97839.02;25009;1315;3056563;-59
2022/06/22 02:45:43;;;;;;;9.90;5.20;;;;;;;18.15;71.99;97830.14;25011;1317;3056018;-60
2022/06/22 02:48:25;;;;;;;13.90;6.00;;;;;;;18.36;70.93;97824.99;25070;1316;3026908;-60
2022/06/22 02:51:14;;;;;;;15.40;6.20;;;;;;;18.11;70.88;97819.09;25010;1321;3069287;-62
2022/06/22 02:53:43;;;;;;;15.80;6.10;;;;;;;17.82;71.07;97817.38;25086;1315;3049401;-60
2022/06/22 02:56:17;;;;;;;13.80;5.70;;;;;;;17.53;71.43;97812.59;25009;1318;3026672;-65
2022/06/22 02:58:48;;;;;;;13.30;5.10;;;;;;;17.33;71.83;97811.98;25027;1316;3071232;-59
2022/06/22 03:01:21;;;;;;;12.70;5.00;;;;;;;17.17;72.56;97819.11;25036;1315;3026621;-63
2022/06/22 03:03:57;;;;;;;5.90;3.20;;;;;;;17.08;72.06;97829.00;25073;1315;3026592;-59
2022/06/22 03:06:34;;;;;;;8.30;4.10;;;;;;;17.63;69.78;97829.40;25109;1316;3055695;-63
2022/06/22 03:09:04;;;;;;;9.80;3.70;;;;;;;17.90;68.75;97827.93;25061;1318;3056730;-63
2022/06/22 03:11:37;;;;;;;7.00;3.30;;;;;;;17.88;68.20;97827.48;25053;1319;3026593;-60
2022/06/22 03:14:32;;;;;;;6.40;3.30;;;;;;;17.53;67.14;97836.09;25073;1316;3026701;-63
2022/06/22 03:17:06;;;;;;;8.10;3.00;;;;;;;17.41;67.69;97834.45;25107;1315;3052086;-61
2022/06/22 03:19:42;;;;;;;10.50;3.00;;;;;;;17.25;66.88;97834.14;25061;1316;3069084;-61
2022/06/22 03:22:23;;;;;;;7.40;2.60;;;;;;;17.05;66.83;97836.11;25116;1315;3052071;-59
2022/06/22 03:25:04;;;;;;;10.00;2.80;;;;;;;16.83;66.69;97832.84;25025;1316;3054963;-61
2022/06/22 03:27:35;;;;;;;9.30;2.10;;;;;;;16.61;67.22;97832.70;25050;1315;3052415;-61
2022/06/22 03:30:16;;;;;;;6.20;2.70;;;;;;;16.60;67.16;97836.48;25080;1316;3026326;-59
2022/06/22 03:32:48;;;;;;;6.90;1.50;;;;;;;16.64;66.92;97838.69;24991;1318;3049666;-62
2022/06/22 03:35:31;;;;;;;4.80;1.70;;;;;;;17.13;64.29;97838.11;25077;1319;3026629;-64
2022/06/22 03:38:04;;;;;;;9.70;1.90;;;;;;;17.32;62.81;97842.52;25065;1316;3054282;-62
2022/06/22 03:40:48;;;;;;;4.00;2.00;;;;;;;17.34;62.56;97841.80;25017;1315;3069120;-63
2022/06/22 03:43:22;;;;;;;6.70;1.90;;;;;;;17.24;62.76;97846.88;25091;1316;3051306;-63
2022/06/22 03:45:58;;;;;;;4.00;1.70;;;;;;;16.94;62.90;97852.36;25091;1319;3052679;-61
2022/06/22 03:48:39;;;;;;;6.40;2.20;;;;;;;16.67;63.18;97869.66;25035;1319;3055026;-60
2022/06/22 03:51:10;;;;;;;6.10;2.20;;;;;;;16.51;63.74;97867.55;25088;1318;3058044;-66
2022/06/22 03:54:09;;;;;;;3.80;2.10;;;;;;;16.38;63.43;97864.50;24990;1321;3026585;-60
2022/06/22 03:56:43;;;;;;;4.40;2.00;;;;;;;16.28;64.25;97867.55;25057;1316;3052774;-59
2022/06/22 03:59:12;;;;;;;9.10;2.00;;;;;;;16.28;64.11;97866.69;25051;1315;3051270;-60
2022/06/22 04:01:42;;;;;;;7.10;2.30;;;;;;;16.21;64.56;97874.35;24991;1315;3026525;-62
2022/06/22 04:04:11;;;;;;;17.10;2.30;;;;;;;16.17;65.49;97873.19;24995;1318;3026763;-62
2022/06/22 04:06:46;;;;;;;3.70;2.00;;;;;;;16.12;65.79;97869.85;24976;1316;3055189;-63
2022/06/22 04:09:21;;;;;;;4.70;2.00;;;;;;;16.18;65.28;97863.35;25018;1318;3071241;-63
2022/06/22 04:12:08;;;;;;;4.20;1.60;;;;;;;16.27;65.85;97872.25;25041;1316;3048545;-61
2022/06/22 04:14:50;;;;;;;4.20;2.00;;;;;;;16.87;64.71;97867.24;25053;1316;3052149;-64
2022/06/22 04:17:34;;;;;;;6.50;1.70;;;;;;;17.17;63.40;97866.84;25107;1316;3052707;-63
2022/06/22 04:20:07;;;;;;;8.60;1.80;;;;;;;17.07;63.44;97867.30;25064;1316;3059129;-63
2022/06/22 04:22:38;;;;;;;7.70;2.30;;;;;;;16.98;63.54;97865.98;25026;1315;3026652;-60
2022/06/22 04:25:21;;;;;;;3.10;1.90;;;;;;;16.80;63.41;97874.11;25079;1318;3026555;-61
2022/06/22 04:27:51;;;;;;;7.80;1.60;;;;;;;16.67;62.67;97868.96;25062;1316;3054094;-66
2022/06/22 04:30:23;;;;;;;10.50;2.40;;;;;;;16.51;62.21;97874.70;24998;1316;3026480;-62
2022/06/22 04:33:44;;;;;;;8.30;2.20;;;;;;;16.46;62.74;97870.55;25049;1318;3055572;-64
2022/06/22 04:36:16;;;;;;;2.70;2.10;;;;;;;16.45;63.09;97868.46;24952;1322;3052779;-61
2022/06/22 04:38:57;;;;;;;2.80;1.60;;;;;;;16.53;62.33;97870.14;24950;1321;3026898;-62
2022/06/22 04:41:34;;;;;;;4.20;1.90;;;;;;;16.53;61.70;97861.48;24994;1319;3051486;-60
2022/06/22 04:44:25;;;;;;;4.90;2.00;;;;;;;16.55;61.35;97862.15;25079;1315;3051905;-62
2022/06/22 04:46:56;;;;;;;9.50;1.90;;;;;;;16.47;60.85;97862.90;24978;1318;3054051;-63
2022/06/22 04:49:30;;;;;;;10.00;1.70;;;;;;;16.43;60.66;97866.09;25054;1319;3028773;-62
2022/06/22 04:52:13;;;;;;;7.60;1.90;;;;;;;16.42;60.83;97858.95;25079;1315;3053338;-65
2022/06/22 04:54:41;;;;;;;2.80;1.90;;;;;;;16.53;60.22;97857.91;25050;1315;3054592;-62
2022/06/22 04:57:24;;;;;;;3.30;1.90;;;;;;;16.55;60.41;97857.27;25081;1316;3026522;-62
2022/06/22 04:59:53;;;;;;;2.20;1.70;;;;;;;16.72;59.75;97849.79;25070;1318;3069859;-62
2022/06/22 05:02:26;;;;;;;2.60;1.70;;;;;;;16.74;59.24;97853.65;25058;1318;3026615;-63
2022/06/22 05:05:02;;;;;;;3.60;2.00;;;;;;;16.84;58.72;97853.25;25063;1315;3051718;-63
2022/06/22 05:07:51;;;;;;;8.30;2.00;;;;;;;16.82;58.03;97852.24;25078;1316;3069769;-60
2022/06/22 05:10:38;;;;;;;6.30;1.70;;;;;;;16.72;57.61;97846.80;25053;1319;3051759;-62
2022/06/22 05:13:20;;;;;;;4.90;1.90;;;;;;;16.71;57.28;97845.68;25036;1319;3056319;-63
2022/06/22 05:15:51;;;;;;;8.30;2.00;;;;;;;16.81;57.26;97850.02;25080;1315;3051444;-59
2022/06/22 05:18:25;;;;;;;5.90;1.90;;;;;;;16.81;56.37;97848.78;25017;1319;3026704;-59
2022/06/22 05:21:06;;;;;;;5.70;1.80;;;;;;;16.95;56.40;97845.54;25033;1316;3051888;-60
2022/06/22 05:23:36;;;;;;;4.10;1.60;;;;;;;17.01;55.15;97845.88;25043;1315;3056123;-60
2022/06/22 05:26:06;;;;;;;7.30;1.70;;;;;;;17.13;55.42;97844.22;25047;1316;3026315;-66
2022/06/22 05:28:40;;;;;;;10.10;1.30;;;;;;;17.16;54.34;97844.92;25122;1315;3049681;-61
2022/06/22 05:31:30;;;;;;;5.00;1.70;;;;;;;17.18;53.68;97849.70;25075;1315;3055325;-62
2022/06/22 05:34:01;;;;;;;4.00;1.70;;;;;;;17.08;53.05;97845.04;25081;1315;3054075;-61
2022/06/22 05:36:33;;;;;;;10.40;1.50;;;;;;;17.06;53.26;97839.41;25069;1315;3028255;-61
2022/06/22 05:39:02;;;;;;;4.10;1.60;;;;;;;17.04;53.98;97837.37;25010;1318;3026435;-59
2022/06/22 05:41:32;;;;;;;3.00;1.30;;;;;;;17.09;54.10;97836.15;25069;1316;3026549;-59
2022/06/22 05:44:05;;;;;;;6.80;1.70;;;;;;;17.17;53.54;97836.98;25075;1315;3068728;-61
2022/06/22 05:46:35;;;;;;;3.90;1.70;;;;;;;17.23;52.63;97835.07;25070;1318;3048975;-62
2022/06/22 05:49:04;;;;;;;5.80;1.30;;;;;;;17.22;51.91;97834.19;25039;1316;3026391;-62
2022/06/22 05:51:39;;;;;;;5.00;1.90;;;;;;;17.19;51.58;97827.77;25030;1319;3026038;-63
2022/06/22 05:54:12;;;;;;;6.40;1.40;;;;;;;17.24;52.09;97829.49;25002;1319;3057379;-63
2022/06/22 05:56:44;;;;;;;5.40;1.70;;;;;;;17.23;51.15;97823.39;25066;1319;3051405;-61
2022/06/22 05:59:40;;;;;;;3.90;1.70;;;;;;;17.33;51.88;97811.95;25118;1315;3026557;-63
2022/06/22 06:02:32;;;;;;;3.50;1.10;;;;;;;17.46;51.74;97815.34;25093;1315;3051762;-66
2022/06/22 06:05:15;;;;;;;3.30;1.20;;;;;;;17.35;51.25;97811.44;25110;1315;3069132;-63
2022/06/22 06:07:49;;;;;;;;;;;;;;;17.43;50.84;97806.77;25096;1315;3049438;-62
2022/06/22 06:10:24;;;;;;;3.50;1.70;;;;;;;17.58;51.02;97805.92;25031;1316;3026278;-60
2022/06/22 06:13:04;;;;;;;5.10;1.90;;;;;;;17.78;51.12;97797.29;25067;1315;3054920;-63
2022/06/22 06:15:34;;;;;;;7.30;2.20;;;;;;;17.99;51.33;97800.54;25080;1315;3059066;-64
2022/06/22 06:18:04;;;;;;;8.10;3.30;;;;;;;18.18;51.78;97800.02;25040;1315;3026483;-61
2022/06/22 06:20:46;;;;;;;11.20;3.60;;;;;;;18.09;51.85;97799.02;25044;1315;3026349;-65
2022/06/22 06:23:27;;;;;;;5.30;3.40;;;;;;;18.14;52.25;97791.81;25096;1315;3054399;-60
2022/06/22 06:28:46;;;;;;;13.60;3.50;;;;;;;18.53;51.97;97785.98;25002;1316;3048062;-65
2022/06/22 06:31:21;;;;;;;6.80;3.30;;;;;;;18.65;51.90;97784.38;25100;1315;3028138;-63
2022/06/22 06:33:50;;;;;;;5.90;3.60;;;;;;;18.87;52.03;97790.55;24982;1315;3052437;-64
2022/06/22 06:36:28;;;;;;;13.00;4.60;;;;;;;19.06;52.10;97781.89;24986;1316;3026489;-65
2022/06/22 06:39:05;;;;;;;10.20;4.40;;;;;;;19.09;52.80;97789.87;25037;1316;3049573;-65
2022/06/22 06:41:38;;;;;;;10.10;5.10;;;;;;;19.18;52.47;97777.80;25057;1315;3054330;-65
2022/06/22 06:44:21;;;;;;;12.20;5.80;;;;;;;19.19;52.66;97781.45;25114;1316;3026670;-63
2022/06/22 06:46:57;;;;;;;12.40;5.10;;;;;;;19.12;53.24;97774.77;25016;1315;3068008;-64
2022/06/22 06:49:28;;;;;;;9.90;4.10;;;;;;;19.17;52.68;97773.77;25065;1315;3049657;-64
2022/06/22 06:52:23;;;;;;;8.70;3.20;;;;;;;19.30;52.69;97775.79;25064;1315;3026961;-63
2022/06/22 06:54:59;;;;;;;5.20;2.80;;;;;;;19.47;52.22;97771.59;25002;1316;3054829;-67
2022/06/22 06:57:29;;;;;;;6.00;2.20;;;;;;;19.45;50.22;97771.41;25019;1318;3058234;-65
2022/06/22 07:00:00;;;;;;;5.60;2.00;;;;;;;19.47;48.32;97773.15;24944;1315;3026518;-69
2022/06/22 07:02:32;;;;;;;5.40;2.40;;;;;;;19.47;47.26;97770.52;25126;1315;3028069;-66
2022/06/22 07:05:05;;;;;;;7.20;2.00;;;;;;;19.44;48.49;97772.38;25057;1318;3030094;-61
2022/06/22 07:07:49;;;;;;;8.60;2.30;;;;;;;19.49;47.99;97769.64;25008;1315;3026911;-65
2022/06/22 07:10:23;;;;;;;7.80;1.80;;;;;;;19.49;47.92;97769.31;25036;1318;3052217;-64
2022/06/22 07:12:57;;;;;;;2.60;1.80;;;;;;;19.47;47.58;97760.58;25027;1315;3026304;-67
2022/06/22 07:15:35;;;;;;;7.60;1.70;;;;;;;19.33;46.71;97766.39;25077;1316;3053165;-67
2022/06/22 07:18:25;;;;;;;4.60;1.40;;;;;;;19.28;45.98;97767.12;25060;1318;3056084;-68
2022/06/22 07:21:04;;;;;;;1.90;1.30;;;;;;;19.46;44.34;97760.23;24997;1316;3052552;-64
2022/06/22 07:23:42;;;;;;;4.60;1.40;;;;;;;19.68;44.19;97761.80;25121;1315;3053781;-65
2022/06/22 07:26:32;;;;;;;1.60;1.10;;;;;;;19.67;43.66;97762.45;25068;1318;3052308;-67
2022/06/22 07:29:05;;;;;;;3.30;1.70;;;;;;;19.67;43.65;97747.09;25110;1315;3071451;-67
2022/06/22 07:31:38;;;;;;;5.20;1.80;;;;;;;19.68;44.49;97738.61;25042;1315;3027021;-63
2022/06/22 07:34:11;;;;;;;6.50;1.50;;;;;;;19.66;44.48;97744.46;25080;1315;3029172;-62
2022/06/22 07:36:42;;;;;;;;;;;;;;;19.78;44.06;97748.48;25094;1315;3053056;-67
2022/06/22 07:39:16;;;;;;;2.20;1.20;;;;;;;19.75;43.68;97750.64;25067;1316;3028566;-64
2022/06/22 07:41:45;;;;;;;3.50;1.60;;;;;;;19.90;43.49;97742.23;25106;1315;3049603;-65
2022/06/22 07:44:19;;;;;;;4.50;1.90;;;;;;;19.83;44.11;97754.58;25054;1315;3026750;-61
2022/06/22 07:47:05;;;;;;;3.60;1.60;;;;;;;19.90;44.39;97744.70;25040;1318;3058567;-68
2022/06/22 07:49:56;;;;;;;4.30;1.60;;;;;;;20.13;44.23;97754.97;25027;1315;3052875;-66
2022/06/22 07:52:29;;;;;;;2.10;1.30;;;;;;;20.15;43.27;97755.77;25079;1318;3054394;-63
2022/06/22 07:55:21;;;;;;;2.70;1.70;;;;;;;20.09;43.79;97753.48;25086;1315;3027095;-65
2022/06/22 07:58:15;;;;;;;2.50;1.10;;;;;;;20.11;42.99;97756.08;25007;1315;3070764;-61
2022/06/22 08:00:45;;;;;;;2.70;1.70;;;;;;;20.14;41.62;97771.21;25059;1318;3051893;-63
2022/06/22 08:03:25;;;;;;;3.10;1.30;;;;;;;20.07;41.11;97764.35;25047;1315;3027032;-62
2022/06/22 08:05:56;;;;;;;4.30;1.30;;;;;;;20.14;41.92;97753.94;25008;1318;3055298;-65
2022/06/22 08:08:28;;;;;;;2.30;1.20;;;;;;;20.39;40.04;97749.33;25094;1316;3026427;-70
2022/06/22 08:11:18;;;;;;;2.70;1.20;;;;;;;20.54;40.98;97744.41;25066;1318;3026903;-65
2022/06/22 08:14:01;;;;;;;1.10;1.00;;;;;;;20.52;40.39;97754.19;25050;1318;3052823;-65
2022/06/22 08:16:33;;;;;;;4.90;0.90;;;;;;;20.52;40.22;97764.69;25040;1315;3053894;-67
2022/06/22 08:19:02;;;;;;;5.30;1.10;;;;;;;20.52;39.86;97766.77;25060;1315;3026546;-64
2022/06/22 08:21:38;;;;;;;4.40;1.20;;;;;;;20.33;40.22;97777.07;25059;1319;3027039;-64
2022/06/22 08:24:09;;;;;;;3.80;1.20;;;;;;;20.44;39.80;97777.44;25054;1319;3053959;-66
2022/06/22 08:26:39;;;;;;;2.90;1.00;;;;;;;20.49;39.62;97789.45;25044;1316;3026439;-65
2022/06/22 08:29:09;;;;;;;1.20;1.00;;;;;;;20.40;38.93;97781.86;25051;1318;3026429;-68
2022/06/22 08:31:46;;;;;;;6.50;1.40;;;;;;;20.24;38.95;97781.65;25056;1315;3026551;-68
2022/06/22 08:34:18;;;;;;;1.80;1.00;;;;;;;20.32;38.33;97783.27;25096;1315;3068202;-61
2022/06/22 08:36:50;;;;;;;2.00;0.90;;;;;;;20.46;38.53;97777.21;25052;1315;3026687;-64
2022/06/22 08:39:49;;;;;;;1.40;1.10;;;;;;;20.58;38.59;97772.05;25092;1315;3027284;-65
2022/06/22 08:42:30;;;;;;;3.70;1.10;;;;;;;20.59;38.10;97773.04;25034;1318;3051822;-67
2022/06/22 08:45:05;;;;;;;3.70;1.20;;;;;;;20.64;38.02;97768.39;25026;1318;3057816;-65
2022/06/22 08:48:16;;;;;;;2.40;1.00;;;;;;;20.69;37.86;97769.20;25017;1315;3050248;-65
2022/06/22 08:51:01;;;;;;;1.50;0.80;;;;;;;20.59;37.71;97767.63;25099;1315;3053915;-63
2022/06/22 08:53:49;;;;;;;1.80;0.80;;;;;;;20.58;37.70;97768.69;25017;1315;3053934;-67
2022/06/22 08:56:44;;;;;;;2.60;0.90;;;;;;;20.52;37.34;97769.48;24990;1318;3070914;-61
2022/06/22 08:59:13;;;;;;;1.80;0.80;;;;;;;20.55;37.34;97773.20;25037;1317;3051771;-67
2022/06/22 09:01:47;;;;;;;3.60;0.90;;;;;;;20.46;37.53;97771.67;25046;1316;3026523;-64
2022/06/22 09:04:25;;;;;;;3.80;1.10;;;;;;;20.54;37.54;97773.89;25016;1315;3071765;-65
2022/06/22 09:07:10;;;;;;;2.10;1.00;;;;;;;20.59;37.82;97771.81;25044;1316;3051632;-62
2022/06/22 09:09:39;;;;;;;;;;;;;;;20.78;37.79;97763.84;25075;1318;3052198;-63
2022/06/22 09:12:08;;;;;;;3.50;0.90;;;;;;;21.06;37.62;97763.41;25006;1315;3026311;-63
2022/06/22 09:14:52;;;;;;;1.90;0.90;;;;;;;21.48;37.19;97762.73;25038;1316;3026310;-67
2022/06/22 09:17:42;;;;;;;2.50;0.90;;;;;;;21.45;36.76;97773.45;25070;1316;3055061;-67
2022/06/22 09:20:37;;;;;;;2.50;0.90;;;;;;;21.42;36.88;97760.80;25106;1315;3054480;-65
2022/06/22 09:23:15;;;;;;;1.90;1.10;;;;;;;21.05;37.02;97761.69;25002;1315;3059249;-62
2022/06/22 09:25:56;;;;;;;4.60;0.80;;;;;;;20.94;37.28;97775.98;25013;1318;3050108;-63
2022/06/22 09:28:27;;;;;;;5.40;1.10;;;;;;;21.20;36.45;97780.08;25059;1317;3055499;-64
2022/06/22 09:30:59;;;;;;;2.30;1.00;;;;;;;21.19;36.60;97771.29;25026;1315;3026929;-67
2022/06/22 09:33:58;;;;;;;2.70;1.00;;;;;;;21.09;36.80;97772.54;25061;1315;3026614;-64
2022/06/22 09:36:40;;;;;;;2.90;0.80;;;;;;;21.16;36.84;97783.97;25010;1318;3050101;-64
2022/06/22 09:39:28;;;;;;;1.30;0.80;;;;;;;21.15;37.28;97775.77;25078;1314;3052335;-67
2022/06/22 09:41:57;;;;;;;3.60;1.30;;;;;;;20.87;38.22;97776.60;25082;1315;3054686;-65
2022/06/22 09:44:50;;;;;;;6.10;1.20;;;;;;;20.62;38.56;97784.23;24990;1315;3026855;-66
2022/06/22 09:47:31;;;;;;;5.20;1.10;;;;;;;20.50;38.56;97776.70;25070;1315;3054597;-65
2022/06/22 09:50:23;;;;;;;5.10;1.20;;;;;;;20.36;38.79;97787.25;25010;1315;3055634;-62
2022/06/22 09:53:01;;;;;;;1.50;1.00;;;;;;;20.46;38.78;97782.95;24964;1315;3059452;-62
2022/06/22 09:59:04;;;;;;;8.40;1.70;;;;;;;20.46;39.08;97786.69;25087;1315;3052962;-62
2022/06/22 10:01:45;;;;;;;1.70;1.00;;;;;;;20.46;39.22;97791.20;25066;1316;3053974;-60
2022/06/22 10:04:47;;;;;;;5.70;1.00;;;;;;;20.21;39.74;97787.16;24988;1318;3071303;-64
2022/06/22 10:07:52;;;;;;;2.20;0.90;;;;;;;19.96;40.51;97790.12;25030;1314;3053548;-68
2022/06/22 10:10:40;;;;;;;10.40;1.10;;;;;;;19.73;40.93;97782.95;25134;1315;3052210;-64
2022/06/22 10:13:27;;;;;;;4.90;1.30;;;;;;;19.90;40.60;97783.80;25051;1318;3054975;-64
2022/06/22 10:16:23;;;;;;;5.80;1.20;;;;;;;20.11;40.60;97786.79;24982;1318;3056746;-69
2022/06/22 10:19:11;;;;;;;4.90;1.30;;;;;;;20.15;40.63;97788.98;25035;1315;3052212;-63
2022/06/22 10:21:40;;;;;;;2.90;0.90;;;;;;;20.09;40.98;97792.74;25101;1315;3053314;-63
2022/06/22 10:24:27;;;;;;;1.90;0.90;;;;;;;20.07;42.32;97798.36;25078;1315;3026336;-62
2022/06/22 10:27:06;;;;;;;10.60;1.20;;;;;;;19.69;43.14;97817.44;24969;1315;3052021;-62
2022/06/22 10:29:54;;;;;;;1.90;1.00;;;;;;;19.76;42.86;97803.32;25104;1315;3053089;-68
2022/06/22 10:32:43;;;;;;;2.50;1.00;;;;;;;19.95;42.39;97806.27;25191;1315;3052426;-66
2022/06/22 10:35:24;;;;;;;2.00;1.00;;;;;;;19.78;42.67;97812.73;25097;1316;3071173;-65
2022/06/22 10:38:07;;;;;;;2.00;0.80;;;;;;;19.75;42.97;97807.45;25094;1315;3048749;-67
2022/06/22 10:47:20;;;;;;;2.20;0.60;;;;;;;19.52;44.28;97807.33;25013;1315;3059286;-70
2022/06/22 10:50:22;;;;;;;3.80;0.90;;;;;;;19.53;44.84;97819.98;25056;1315;3049334;-69
2022/06/22 10:53:26;;;;;;;1.70;0.80;;;;;;;19.31;46.57;97836.01;25014;1318;3052673;-65
2022/06/22 10:56:30;;;;;;;3.90;1.30;;;;;;;18.90;48.61;97841.25;25038;1318;3054646;-64
2022/06/22 10:59:33;;;;;;;6.70;1.00;;;;;;;18.45;50.09;97856.33;25085;1315;3070022;-68
2022/06/22 11:02:30;;;;;;;3.50;0.90;;;;;;;18.37;49.98;97857.98;25061;1315;3049135;-64
2022/06/22 11:05:18;;;;;;;3.20;0.80;;;;;;;18.03;50.38;97855.66;25146;1315;3055013;-65
2022/06/22 11:08:27;;;;;;;9.20;1.00;;;;;;;17.65;51.80;97865.34;25086;1315;3052502;-69
2022/06/22 11:11:12;;;;;;;4.60;1.00;;;;;;;17.35;53.31;97873.54;25210;1315;3056905;-64
2022/06/22 11:13:47;;;;;;;1.90;0.90;;;;;;;17.20;54.39;97873.14;25169;1315;3049417;-71
2022/06/22 11:16:28;;;;;;;2.10;1.00;;;;;;;17.06;55.97;97870.41;25184;1315;3053174;-66
2022/06/22 11:19:00;;;;;;;3.20;1.00;;;;;;;16.78;57.56;97866.24;25240;1315;3052256;-64
2022/06/22 11:22:00;;;;;;;6.20;1.10;;;;;;;16.65;58.33;97863.29;24892;1318;3026484;-69
2022/06/22 11:24:41;;;;;;;2.40;0.80;;;;;;;16.71;58.76;97849.39;25079;1318;3053232;-70
2022/06/22 11:30:57;;;;;;;1.60;0.80;;;;;;;17.18;56.02;97839.66;25127;1316;3052872;-66
2022/06/22 11:34:04;;;;;;;1.80;0.70;;;;;;;17.70;53.71;97836.30;25056;1317;3056501;-67
2022/06/22 11:36:46;;;;;;;1.80;0.80;;;;;;;18.20;53.98;97822.88;25081;1318;3052278;-64
2022/06/22 11:39:33;;;;;;;2.40;0.90;;;;;;;18.77;52.14;97820.64;25109;1315;3053471;-70
2022/06/22 11:42:22;;;;;;;4.40;1.10;;;;;;;19.34;50.39;97811.36;25174;1315;3051904;-64
2022/06/22 11:47:56;;;;;;;2.10;0.90;;;;;;;20.05;48.08;97801.59;25160;1318;3050513;-66
2022/06/22 11:50:51;;;;;;;;;;;;;;;20.42;46.19;97798.41;25151;1318;3052746;-65
2022/06/22 11:53:46;;;;;;;3.10;0.60;;;;;;;20.60;44.20;97785.90;25057;1318;3052510;-68
2022/06/22 11:56:17;;;;;;;3.90;0.70;;;;;;;20.75;42.50;97789.48;25110;1315;3059012;-66
2022/06/22 11:59:25;;;;;;;0.70;0.50;;;;;;;20.87;42.14;97777.86;25055;1315;3027176;-64
2022/06/22 12:02:00;;;;;;;2.20;0.80;;;;;;;21.22;42.22;97778.55;25072;1318;3052721;-69
2022/06/22 12:05:17;;;;;;;6.30;0.80;;;;;;;21.52;41.84;97772.23;25116;1316;3050682;-67
2022/06/22 12:08:05;;;;;;;2.90;1.00;;;;;;;21.69;41.09;97771.52;24991;1319;3071151;-68
2022/06/22 12:11:07;;;;;;;1.20;0.50;;;;;;;21.87;41.30;97768.79;25100;1315;3048847;-69
2022/06/22 12:17:26;;;;;;;3.40;0.70;;;;;;;21.69;40.13;97774.55;25248;1315;3055890;-66
2022/06/22 12:20:27;;;;;;;3.80;0.70;;;;;;;21.42;40.47;97777.02;25232;1315;3056674;-68
2022/06/22 12:23:24;;;;;;;2.60;0.60;;;;;;;20.84;41.49;97777.30;25099;1316;3051397;-68
2022/06/22 12:26:08;;;;;;;2.30;0.60;;;;;;;20.56;42.21;97771.72;25100;1318;3054003;-68
2022/06/22 12:28:56;;;;;;;1.00;0.80;;;;;;;20.45;43.02;97787.67;25117;1315;3054075;-66
2022/06/22 12:31:27;;;;;;;7.00;0.70;;;;;;;19.80;46.38;97837.36;25114;1315;3069823;-66
2022/06/22 12:33:59;;;;;;;1.80;0.60;;;;;;;18.98;50.80;97840.48;25078;1315;3028676;-68
2022/06/22 12:36:49;;;;;;;4.20;0.70;;;;;;;18.21;54.67;97845.08;25015;1317;3026583;-63
2022/06/22 12:39:25;;;;;;;2.10;1.00;;;;;;;17.21;59.85;97870.15;25053;1318;3053234;-68
2022/06/22 12:42:03;;;;;;;4.90;0.90;;;;;;;16.51;61.64;97865.96;25093;1315;3057460;-71